Weather reports worldwide

Advertisment
Le Puy, France (7471): temperature & dewpoint: 16.08.2019 20:00:00 - 22.08.2019 20:00:00 (CEST)Le Puy, France (7471): temperature 5cm: 16.08.2019 20:00:00 - 22.08.2019 20:00:00 (CEST)Le Puy, France (7471): temperature -20cm & temperature -100cm: 16.08.2019 20:00:00 - 22.08.2019 20:00:00 (CEST)Le Puy, France (7471): wind speed & gusts: 16.08.2019 20:00:00 - 22.08.2019 20:00:00 (CEST)Le Puy, France (7471): wind direction: 16.08.2019 20:00:00 - 22.08.2019 20:00:00 (CEST)Le Puy, France (7471): visibility: 16.08.2019 20:00:00 - 22.08.2019 20:00:00 (CEST)Le Puy, France (7471): sunshine duration: 16.08.2019 20:00:00 - 22.08.2019 20:00:00 (CEST)Le Puy, France (7471): precipitation: 16.08.2019 20:00:00 - 22.08.2019 20:00:00 (CEST)
Date & Time tt [°C] td [°C] tt 5cm [°C] tt -20cm [°C] tt -100cm [°C] ff [km/h] ff [kn] fx [km/h] fx [kn] dd vv [km] sd [min] rr [mm]
22.08.2019 20:00:00 19,6 11,6 19,3 18,0 16,2 8 4 16 9 NE 20 60 0,0
22.08.2019 19:00:00 21,2 12,6 22,8 17,8 16,2 11 6 17 9 ENE 20 60 0,0
22.08.2019 18:00:00 22,1 14,0 25,3 17,5 16,2 11 6 18 10 ENE 20 60 0,0
22.08.2019 17:00:00 22,3 14,7 26,7 17,2 16,2 10 5 20 11 ENE 20 60 0,0
22.08.2019 16:00:00 22,1 12,9 27,2 17,0 16,2 8 4 22 12 ENE 20 60 0,0
22.08.2019 15:00:00 21,5 12,3 27,7 16,9 16,2 6 3 16 9 SE 20 60 0,0
22.08.2019 14:00:00 20,4 12,1 26,3 16,7 16,2 5 3 13 7 ENE 20 60 0,0
22.08.2019 13:00:00 19,5 12,0 25,6 16,6 16,2 5 3 16 9 ESE 20 60 0,0
22.08.2019 12:00:00 18,2 12,0 23,3 16,6 16,2 6 3 14 8 SE 20 60 0,0
22.08.2019 11:00:00 17,1 11,6 22,9 16,7 16,2 5 3 12 7 SSE 20 60 0,0
22.08.2019 10:00:00 16,0 11,8 20,5 16,8 16,2 4 2 8 5 ENE 20 60 0,0
22.08.2019 09:00:00 12,7 11,6 14,3 17,0 16,2 0 0 5 3 N 20 60 0,0
22.08.2019 08:00:00 10,0 9,2 7,4 17,0 16,2 0 0 5 3 N 20 23 0,2
22.08.2019 07:00:00 8,7 7,9 6,5 17,2 16,2 0 0 5 3 N 20 0 0,0
22.08.2019 06:00:00 9,0 8,1 8,0 17,3 16,2 5 3 11 6 WNW 20 0 0,0
22.08.2019 05:00:00 9,6 8,7 8,4 17,4 16,2 4 2 8 4 W 20 0 0,0
22.08.2019 04:00:00 9,6 8,7 8,1 17,4 16,2 4 2 6 3 SW 20 0 0,0
22.08.2019 03:00:00 10,1 9,0 9,2 17,5 16,2 4 2 6 3 SW 20 0 0,0
22.08.2019 02:00:00 10,5 9,4 9,1 17,5 16,2 6 3 8 4 SW 20 0 0,0
22.08.2019 01:00:00 11,4 10,0 9,8 17,6 16,2 4 2 5 3 SW 20 0 0,0
22.08.2019 00:00:00 12,5 10,2 10,4 17,5 16,2 3 2 8 4 W 20 0 0,0
21.08.2019 23:00:00 13,6 10,2 12,0 17,5 16,2 3 2 8 4 WSW 20 0 0,0
21.08.2019 22:00:00 14,8 10,2 12,8 17,5 16,2 6 3 15 8 N 20 0 0,0
21.08.2019 21:00:00 15,5 10,3 13,6 17,4 16,2 8 5 21 12 N 19 7 0,0
21.08.2019 20:00:00 17,4 10,3 17,2 17,2 16,2 13 7 28 15 NE 20 60 0,0
21.08.2019 19:00:00 18,9 10,7 20,5 17,0 16,2 15 8 24 13 ENE 20 60 0,0
21.08.2019 18:00:00 19,2 9,9 22,7 16,8 16,2 16 9 32 18 ENE 20 60 0,0
21.08.2019 17:00:00 19,7 10,1 23,6 16,6 16,2 18 10 28 15 ENE 20 60 0,0
21.08.2019 16:00:00 19,0 10,3 22,6 16,5 16,2 13 7 29 15 ENE 20 52 0,0
21.08.2019 15:00:00 19,1 11,1 22,7 16,3 16,2 11 6 23 12 ENE 20 53 0,0
21.08.2019 14:00:00 18,3 10,9 21,7 16,3 16,2 13 7 27 14 ENE 20 49 0,0
21.08.2019 13:00:00 17,9 9,5 22,2 16,2 16,2 16 9 27 14 NE 20 60 0,0
21.08.2019 12:00:00 16,7 9,9 21,5 16,3 16,2 9 5 22 12 ENE 20 60 0,0
21.08.2019 11:00:00 15,3 8,5 21,7 16,4 16,2 5 3 12 7 NE 20 60 0,0
21.08.2019 10:00:00 13,8 7,3 18,1 16,5 16,2 3 2 13 7 NNW 20 60 0,0
21.08.2019 09:00:00 12,2 6,9 11,9 16,7 16,2 4 2 9 5 SW 20 60 0,0
21.08.2019 08:00:00 8,1 6,4 4,8 16,8 16,2 5 3 8 5 SW 20 45 0,0
21.08.2019 07:00:00 5,9 4,2 4,6 17,0 16,2 6 3 9 5 WSW 20 0 0,0
21.08.2019 06:00:00 6,6 4,8 4,6 17,1 16,2 5 3 10 6 WSW 20 0 0,0
21.08.2019 05:00:00 6,2 5,0 4,4 17,3 16,2 5 3 8 4 WSW 20 0 0,0
21.08.2019 04:00:00 6,8 5,4 5,1 17,4 16,2 5 3 9 5 W 20 0 0,0
21.08.2019 03:00:00 9,0 6,8 5,9 17,5 16,2 6 3 9 5 NW 20 0 0,0
21.08.2019 02:00:00 7,6 6,5 5,9 17,7 16,2 3 2 7 4 W 20 0 0,0
21.08.2019 01:00:00 7,9 7,0 6,5 17,7 16,2 4 2 6 3 WSW 20 0 0,0
21.08.2019 00:00:00 8,5 7,4 6,9 17,8 16,2 3 2 6 4 W 20 0 0,0
20.08.2019 23:00:00 9,8 8,1 8,0 17,8 16,2 5 3 9 5 WNW 20 0 0,0
20.08.2019 22:00:00 11,1 9,0 10,0 17,8 16,2 7 4 10 5 NW 20 0 0,0
20.08.2019 21:00:00 11,7 9,6 10,4 17,9 16,2 9 5 20 11 N 20 21 0,0
20.08.2019 20:00:00 13,9 10,3 14,4 17,9 16,2 10 5 19 10 NNW 20 42 0,0
20.08.2019 19:00:00 14,0 10,4 14,8 17,9 16,2 13 7 22 12 NE 20 40 0,0
20.08.2019 18:00:00 14,1 12,3 14,7 17,9 16,2 10 5 35 19 NE 20 6 0,0
20.08.2019 17:00:00 14,3 11,8 13,9 18,0 16,2 10 5 14 8 NNE 20 0 0,2
20.08.2019 16:00:00 13,4 11,8 13,4 18,0 16,2 0 0 9 5 N 20 0 0,0
20.08.2019 15:00:00 12,9 11,3 13,5 18,0 16,2 9 5 14 8 E 20 0 0,6
20.08.2019 14:00:00 12,7 11,3 12,7 18,1 16,2 2 1 10 5 N 20 0 1,6
20.08.2019 13:00:00 12,1 10,8 13,1 18,2 16,2 4 2 16 8 NNW 14 0 1,7
20.08.2019 12:00:00 12,5 11,4 13,0 18,3 16,2 7 4 13 7 NNW 11 0 1,2
20.08.2019 11:00:00 12,0 10,6 12,4 18,3 16,2 3 2 7 4 NNW 14 0 0,8
20.08.2019 10:00:00 12,0 10,7 12,3 18,5 16,2 4 2 11 6 NNW 14 0 0,6
20.08.2019 09:00:00 11,8 10,9 11,8 18,6 16,2 4 2 8 4 NNW 20 0 0,4
20.08.2019 08:00:00 11,8 11,2 11,8 18,6 16,2 3 1 6 4 WNW 14 0 0,4
20.08.2019 07:00:00 11,8 11,2 11,9 18,7 16,2 6 3 9 5 NNW 16 0 0,4
20.08.2019 06:00:00 12,2 11,6 12,1 18,8 16,2 5 3 8 4 WSW 15 0 0,4
20.08.2019 05:00:00 12,3 11,7 12,3 18,9 16,2 5 3 8 5 N 18 0 0,6
20.08.2019 04:00:00 12,5 11,9 12,5 19,0 16,2 0 0 8 4 N 17 0 0,6
20.08.2019 03:00:00 13,1 12,6 13,0 19,1 16,2 3 2 7 4 NNW 13 0 0,2
20.08.2019 02:00:00 13,1 12,6 12,8 19,2 16,2 0 0 6 3 N 4,9 0 0,0
20.08.2019 01:00:00 13,1 12,6 12,2 19,2 16,2 4 2 7 4 NNW 1,3 0 0,0
20.08.2019 00:00:00 13,9 13,4 13,8 19,3 16,2 3 2 9 5 SE 12 0 0,0
19.08.2019 23:00:00 13,7 13,2 13,9 19,3 16,2 5 3 11 6 WNW 11 0 0,0
19.08.2019 22:00:00 14,1 13,5 14,1 19,4 16,2 4 2 6 4 ENE 10 0 0,0
19.08.2019 21:00:00 13,9 13,4 14,1 19,4 16,2 3 2 6 3 SSW 8 0 0,2
19.08.2019 20:00:00 13,8 13,2 14,2 19,5 16,2 4 2 11 6 E 4,2 0 0,0
19.08.2019 19:00:00 13,9 13,3 14,3 19,4 16,2 7 4 12 6 ENE 3,9 0 0,2
19.08.2019 18:00:00 14,7 13,7 15,2 19,5 16,2 6 4 10 6 ENE 4,8 0 0,2
19.08.2019 17:00:00 15,4 13,8 16,3 19,4 16,2 9 5 16 8 W 10 0 0,0
19.08.2019 16:00:00 15,9 14,1 17,2 19,5 16,2 5 3 11 6 W 17 0 0,0
19.08.2019 15:00:00 15,9 13,9 17,3 19,5 16,2 8 4 15 8 NW 20 0 0,0
19.08.2019 14:00:00 16,1 14,6 17,0 19,5 16,2 9 5 14 8 WNW 20 0 0,0
19.08.2019 13:00:00 16,0 15,0 16,1 19,6 16,2 6 3 11 6 NW 20 0 0,0
19.08.2019 12:00:00 15,3 14,5 16,4 19,7 16,2 9 5 12 6 NNW 3,9 0 0,0
19.08.2019 11:00:00 15,6 14,5 16,2 19,7 16,2 9 5 15 8 NNW 17 0 0,0
19.08.2019 10:00:00 15,7 14,9 16,1 19,8 16,2 7 4 17 9 W 20 0 0,2
19.08.2019 09:00:00 16,0 15,4 16,2 19,9 16,2 4 2 16 9 SW 20 0 1,6
19.08.2019 08:00:00 16,2 15,7 16,4 20,0 16,2 0 0 7 4 N 3,9 0 1,2
19.08.2019 07:00:00 16,2 15,7 15,5 20,1 16,2 3 1 8 4 SE 6 0 1,6
19.08.2019 06:00:00 16,1 15,5 15,2 20,2 16,2 0 0 9 5 N 0,7 0 0,7
19.08.2019 05:00:00 16,8 16,0 16,5 20,2 16,2 5 3 16 9 WSW 18 0 2,8
19.08.2019 04:00:00 16,8 16,2 16,2 20,3 16,2 6 3 19 11 WSW 8 0 0,8
19.08.2019 03:00:00 16,4 15,6 15,9 20,4 16,2 4 2 12 6 NNE 18 0 0,0
19.08.2019 02:00:00 17,2 16,2 16,4 20,4 16,2 8 5 18 10 SE 19 0 0,6
19.08.2019 01:00:00 17,6 16,6 16,3 20,4 16,2 6 3 10 5 SW 20 0 0,0
19.08.2019 00:00:00 18,1 16,3 16,9 20,4 16,2 4 2 16 9 S 20 0 0,2
18.08.2019 23:00:00 18,2 16,9 17,7 20,4 16,2 4 2 27 15 S 19 0 0,2
18.08.2019 22:00:00 18,7 16,5 17,1 20,3 16,2 6 4 45 24 S 14 0 2,8
18.08.2019 21:00:00 20,7 16,1 18,3 20,2 16,2 6 4 28 15 SW 12 0 0,6
18.08.2019 20:00:00 22,1 15,4 19,9 20,0 16,2 13 7 29 16 S 20 0 0,0
18.08.2019 19:00:00 23,7 15,7 23,9 19,8 16,2 12 6 33 18 S 20 5 0,0
18.08.2019 18:00:00 26,4 16,3 27,6 19,6 16,2 15 8 34 19 S 20 33 0,0
18.08.2019 17:00:00 27,7 15,7 29,7 19,3 16,2 14 8 33 18 S 20 52 0,0
18.08.2019 16:00:00 28,2 15,8 31,3 19,1 16,2 12 7 33 18 S 20 58 0,0
18.08.2019 15:00:00 28,0 14,3 33,4 19,0 16,2 13 7 35 19 S 20 60 0,0
18.08.2019 14:00:00 28,1 14,3 31,4 18,9 16,2 14 8 31 17 SW 20 60 0,0
18.08.2019 13:00:00 26,0 14,8 30,3 18,9 16,2 17 9 37 20 S 20 60 0,0
18.08.2019 12:00:00 24,7 14,8 29,1 18,9 16,2 17 9 39 21 S 20 60 0,0
18.08.2019 11:00:00 23,3 14,8 27,6 18,9 16,2 18 10 37 20 SE 20 60 0,0
18.08.2019 10:00:00 22,5 15,1 22,7 19,0 16,2 13 7 31 17 SSE 20 57 0,0
18.08.2019 09:00:00 20,3 14,4 21,2 19,2 16,2 13 7 29 16 ESE 20 60 0,0
18.08.2019 08:00:00 17,1 10,5 11,7 19,3 16,2 3 2 11 6 NNW 20 48 0,0
18.08.2019 07:00:00 13,6 10,0 10,9 19,5 16,2 3 2 7 4 W 20 0 0,0
18.08.2019 06:00:00 13,0 10,7 10,4 19,6 16,2 3 1 8 4 WNW 20 0 0,0
18.08.2019 05:00:00 14,4 11,2 11,1 19,7 16,2 4 2 13 7 WNW 20 0 0,0
18.08.2019 04:00:00 14,5 11,1 11,3 19,8 16,2 3 2 18 10 WNW 20 0 0,0
18.08.2019 03:00:00 15,4 10,8 13,3 19,8 16,2 4 2 11 6 ESE 20 0 0,0
18.08.2019 02:00:00 16,9 11,4 12,7 19,9 16,2 8 4 11 6 N 20 0 0,0
18.08.2019 01:00:00 16,8 11,7 12,9 19,9 16,2 3 2 8 4 NNE 20 0 0,0
18.08.2019 00:00:00 17,5 12,2 14,7 19,9 16,2 0 0 8 4 N 20 0 0,0
17.08.2019 23:00:00 18,6 11,9 15,3 19,9 16,2 4 2 13 7 NNE 20 0 0,0
17.08.2019 22:00:00 22,1 12,6 18,2 19,8 16,2 8 4 17 9 SW 20 0 0,0
17.08.2019 21:00:00 22,5 11,2 19,9 19,7 16,2 5 3 16 9 SSW 7 17 0,0
17.08.2019 20:00:00 27,8 9,1 27,7 19,5 16,2 10 5 25 13 W 20 60 0,0
17.08.2019 19:00:00 28,9 8,6 30,0 19,3 16,2 16 8 32 17 W 20 60 0,0
17.08.2019 18:00:00 29,5 9,1 30,0 19,1 16,2 19 11 41 22 W 20 56 0,0
17.08.2019 17:00:00 28,9 9,1 30,9 18,8 16,2 21 11 39 21 W 20 57 0,0
17.08.2019 16:00:00 29,2 9,8 32,3 18,6 16,2 23 13 46 25 WSW 20 60 0,0
17.08.2019 15:00:00 29,2 8,8 32,8 18,4 16,2 26 14 46 25 W 20 60 0,0
17.08.2019 14:00:00 28,6 7,8 32,1 18,3 16,2 18 10 37 20 WSW 20 60 0,0
17.08.2019 13:00:00 28,2 5,7 31,7 18,3 16,2 13 7 31 17 W 20 60 0,0
17.08.2019 12:00:00 26,8 1,9 29,6 18,3 16,2 14 8 27 15 W 20 60 0,0
17.08.2019 11:00:00 23,0 8,7 26,4 18,4 16,2 8 5 13 7 E 20 60 0,0
17.08.2019 10:00:00 20,4 8,4 24,3 18,5 16,2 5 3 8 5 ESE 20 57 0,0
17.08.2019 09:00:00 16,2 9,4 17,7 18,7 16,2 3 2 6 3 NE 20 60 0,0
17.08.2019 08:00:00 13,6 8,4 7,7 18,8 16,2 3 1 11 6 WSW 20 33 0,0
17.08.2019 07:00:00 10,1 6,8 7,8 19,0 16,2 2 1 6 4 ESE 20 0 0,0
17.08.2019 06:00:00 12,1 7,4 8,8 19,1 16,2 0 0 7 4 N 20 0 0,0
17.08.2019 05:00:00 11,8 7,3 9,5 19,2 16,2 0 0 8 5 N 20 0 0,0
17.08.2019 04:00:00 12,3 7,4 8,9 19,3 16,2 3 1 7 4 SSW 20 0 0,0
17.08.2019 03:00:00 12,1 7,2 8,8 19,4 16,2 2 1 13 7 NNE 20 0 0,0
17.08.2019 02:00:00 12,4 7,3 9,5 19,5 16,2 4 2 9 5 W 20 0 0,0
17.08.2019 01:00:00 13,5 7,5 11,3 19,6 16,2 7 4 12 7 SSW 20 0 0,0
17.08.2019 00:00:00 14,2 8,2 10,3 19,6 16,2 0 0 9 5 N 20 0 0,0
16.08.2019 23:00:00 13,2 9,3 10,9 19,6 16,2 5 3 8 5 E 20 0 0,0
16.08.2019 22:00:00 16,1 9,7 14,2 19,5 16,2 5 3 9 5 SW 20 0 0,0
16.08.2019 21:00:00 18,7 11,0 17,0 19,3 16,2 5 3 10 5 SSW 10 13 0,0
16.08.2019 20:00:00 23,1 9,5 23,0 19,2 16,2 3 2 10 5 ESE 20 56 0,0

tt = temperature
td = dewpoint
tt 5cm = temperature 5cm
tt -20cm = temperature -20cm
tt -100cm = temperature -100cm
ff = wind speed
fx = gusts
dd = wind direction
vv = visibility
sd = sunshine duration
rr = precipitation

Next stations